Time;durP1;ratioP1;P1;durP2;ratioP2;P2;SDS_P1;SDS_P2;PMS_P1;PMS_P2;Temp;Humidity;BMP_temperature;BMP_pressure;BME280_temperature;BME280_humidity;BME280_pressure;Samples;Min_cycle;Max_cycle;Signal;HPM_P1;HPM_P2
2022/06/21 00:00:16;;;;;;;8.20;4.22;;;;;;;12.45;78.08;101538.97;6220483;23;20012;-85
2022/06/21 00:02:45;;;;;;;8.75;4.93;;;;;;;12.51;78.48;101550.06;6196702;23;20434;-85
2022/06/21 00:05:38;;;;;;;9.87;4.50;;;;;;;12.43;77.30;101532.91;6247782;23;20004;-85
2022/06/21 00:08:13;;;;;;;10.30;4.80;;;;;;;12.44;78.85;101547.34;6209371;23;20008;-85
2022/06/21 00:10:39;;;;;;;9.75;5.00;;;;;;;12.36;80.95;101553.84;6220442;23;20014;-86
2022/06/21 00:13:25;;;;;;;12.77;4.55;;;;;;;12.45;81.79;101565.34;6247731;23;20322;-85
2022/06/21 00:15:57;;;;;;;9.10;4.50;;;;;;;12.39;80.82;101556.16;6220860;23;20067;-85
2022/06/21 00:18:24;;;;;;;9.18;5.15;;;;;;;12.32;81.03;101549.03;6220786;23;20011;-85
2022/06/21 00:20:50;;;;;;;15.48;5.47;;;;;;;12.31;82.06;101556.34;6220748;23;20010;-85
2022/06/21 00:23:27;;;;;;;12.30;5.17;;;;;;;12.29;81.03;101564.72;6247266;23;20079;-85
2022/06/21 00:25:53;;;;;;;10.57;5.05;;;;;;;12.16;81.20;101558.44;6220083;23;20008;-85
2022/06/21 00:28:20;;;;;;;7.47;5.28;;;;;;;12.12;82.29;101552.59;6246937;23;20007;-85
2022/06/21 00:30:47;;;;;;;11.65;5.60;;;;;;;12.23;82.84;101556.56;6219939;23;20012;-85
2022/06/21 00:33:24;;;;;;;9.13;5.22;;;;;;;12.15;81.48;101544.03;6247249;23;20420;-85
2022/06/21 00:35:54;;;;;;;10.03;4.53;;;;;;;12.20;80.90;101535.22;6247001;23;20010;-85
2022/06/21 00:38:29;;;;;;;9.68;4.72;;;;;;;12.25;80.47;101549.03;6220926;23;20365;-85
2022/06/21 00:41:01;;;;;;;10.07;4.93;;;;;;;12.16;80.14;101539.41;6247244;23;20004;-85
2022/06/21 00:43:33;;;;;;;10.65;5.20;;;;;;;12.18;80.69;101548.19;6219769;23;20092;-85
2022/06/21 00:45:59;;;;;;;10.50;4.65;;;;;;;12.10;80.97;101538.34;6246966;23;20079;-85
2022/06/21 00:48:44;;;;;;;8.83;4.90;;;;;;;12.10;80.75;101547.34;6247252;23;20075;-85
2022/06/21 00:51:19;;;;;;;10.30;4.80;;;;;;;12.10;81.80;101557.41;6247021;23;20457;-85
2022/06/21 00:53:57;;;;;;;11.77;5.13;;;;;;;12.00;82.15;101535.22;6220351;23;20004;-85
2022/06/21 00:56:30;;;;;;;15.25;5.13;;;;;;;11.97;81.74;101527.47;6219841;23;20004;-86
2022/06/21 00:59:17;;;;;;;11.00;5.10;;;;;;;11.95;81.35;101529.56;6220463;23;20011;-85
2022/06/21 01:01:46;;;;;;;9.33;5.03;;;;;;;11.97;82.18;101544.63;6247269;23;20000;-85
2022/06/21 01:04:17;;;;;;;10.40;5.07;;;;;;;11.96;82.08;101531.22;6220015;23;20001;-85
2022/06/21 01:06:50;;;;;;;12.18;5.53;;;;;;;11.92;81.92;101514.47;6220359;23;20012;-86
2022/06/21 01:09:21;;;;;;;9.68;4.88;;;;;;;11.94;81.76;101523.28;6247330;23;20067;-85
2022/06/21 01:12:01;;;;;;;8.98;4.95;;;;;;;11.84;81.92;101499.19;6219732;23;20004;-85
2022/06/21 01:14:30;;;;;;;9.97;4.70;;;;;;;11.77;81.81;101498.34;6247128;23;20422;-85
2022/06/21 01:16:59;;;;;;;9.90;4.70;;;;;;;11.72;82.40;101498.97;6247072;23;20426;-85
2022/06/21 01:19:42;;;;;;;8.45;5.15;;;;;;;11.77;82.61;101509.22;6220195;23;20065;-86
2022/06/21 01:22:33;;;;;;;9.95;5.03;;;;;;;11.76;82.26;101511.09;6220193;23;20008;-85
2022/06/21 01:25:29;;;;;;;11.38;5.30;;;;;;;11.72;82.48;101511.72;6219823;23;20000;-85
2022/06/21 01:27:57;;;;;;;10.67;5.23;;;;;;;11.64;83.06;101501.06;6219738;23;20430;-85
2022/06/21 01:30:26;;;;;;;10.18;5.07;;;;;;;11.62;83.58;101503.97;6220014;23;20066;-85
2022/06/21 01:32:52;;;;;;;16.40;5.35;;;;;;;11.63;83.07;101504.81;6219581;23;20012;-85
2022/06/21 01:35:28;;;;;;;12.43;4.70;;;;;;;11.55;82.99;101489.53;6219873;23;20008;-85
2022/06/21 01:37:55;;;;;;;11.23;5.22;;;;;;;11.55;83.82;101490.38;6218960;23;20012;-85
2022/06/21 01:40:29;;;;;;;9.20;5.17;;;;;;;11.52;83.92;101503.53;6246745;23;20014;-85
2022/06/21 01:43:08;;;;;;;15.15;5.75;;;;;;;11.57;84.87;101517.34;6247151;23;20305;-85
2022/06/21 01:45:46;;;;;;;13.27;5.40;;;;;;;11.56;84.17;101508.34;6220037;23;20012;-85
2022/06/21 01:48:38;;;;;;;13.30;5.10;;;;;;;11.57;83.55;101520.06;6246887;23;20004;-85
2022/06/21 01:51:12;;;;;;;9.88;5.10;;;;;;;11.52;84.13;101509.81;6219868;23;20000;-85
2022/06/21 01:53:39;;;;;;;10.57;5.50;;;;;;;11.46;84.20;101499.75;6220132;23;20109;-85
2022/06/21 01:56:13;;;;;;;10.10;5.40;;;;;;;11.48;84.12;101500.38;6219024;23;20008;-85
2022/06/21 01:58:44;;;;;;;14.43;5.72;;;;;;;11.48;84.17;101508.53;6219739;23;20015;-85
2022/06/21 02:01:21;;;;;;;12.80;5.22;;;;;;;11.40;84.86;101497.88;6219338;23;20369;-85
2022/06/21 02:03:53;;;;;;;12.15;5.85;;;;;;;11.38;85.00;101492.66;6219888;23;20011;-85
2022/06/21 02:06:26;;;;;;;19.23;6.30;;;;;;;11.38;85.15;101494.50;6219870;23;20012;-85
2022/06/21 02:08:59;;;;;;;14.82;5.63;;;;;;;11.30;85.50;101487.38;6219784;23;20008;-86
2022/06/21 02:11:45;;;;;;;16.05;5.80;;;;;;;11.34;85.36;101494.09;6246657;23;20023;-85
2022/06/21 02:14:33;;;;;;;11.75;5.20;;;;;;;11.27;86.40;101489.69;6219620;23;20372;-85
2022/06/21 02:17:18;;;;;;;12.13;6.13;;;;;;;11.27;85.41;101486.97;6246638;23;20011;-85
2022/06/21 02:20:00;;;;;;;13.50;6.30;;;;;;;11.22;87.61;101493.84;6246467;23;20007;-86
2022/06/21 02:22:29;;;;;;;13.63;6.00;;;;;;;11.19;87.48;101485.25;6245913;23;20075;-86
2022/06/21 02:24:55;;;;;;;12.82;5.78;;;;;;;11.27;87.07;101492.41;6245805;23;20004;-86
2022/06/21 02:27:23;;;;;;;15.48;6.18;;;;;;;11.15;86.86;101473.97;6246242;23;20355;-85
2022/06/21 02:29:52;;;;;;;15.63;6.53;;;;;;;11.20;87.50;101489.66;6246538;23;20057;-86
2022/06/21 02:32:30;;;;;;;19.00;6.73;;;;;;;11.19;87.29;101477.97;6246122;23;20000;-85
2022/06/21 02:35:05;;;;;;;14.23;5.68;;;;;;;11.15;87.92;101456.84;6219248;23;20015;-85
2022/06/21 02:37:33;;;;;;;13.25;5.47;;;;;;;11.12;87.34;101458.09;6220224;23;20008;-86
2022/06/21 02:40:07;;;;;;;13.77;6.28;;;;;;;11.10;88.62;101462.03;6219560;23;20019;-85
2022/06/21 02:42:40;;;;;;;12.30;6.72;;;;;;;11.02;88.40;101468.50;6246129;23;20457;-85
2022/06/21 02:45:18;;;;;;;14.67;6.63;;;;;;;10.92;88.35;101466.16;6246159;23;20496;-85
2022/06/21 02:47:50;;;;;;;13.18;6.72;;;;;;;10.86;88.17;101465.06;6219298;23;20007;-85
2022/06/21 02:50:28;;;;;;;14.77;6.60;;;;;;;10.84;88.63;101461.72;6219957;23;20008;-85
2022/06/21 02:52:59;;;;;;;13.95;6.55;;;;;;;10.80;89.02;101459.63;6219671;23;20038;-85
2022/06/21 02:55:49;;;;;;;14.70;6.53;;;;;;;10.84;88.16;101479.91;6217884;23;20011;-85
2022/06/21 02:58:45;;;;;;;12.00;6.13;;;;;;;10.74;88.91;101474.00;6246105;23;20004;-85
2022/06/21 03:01:38;;;;;;;14.18;6.57;;;;;;;10.74;87.62;101477.56;6219428;23;20004;-85
2022/06/21 03:04:06;;;;;;;11.25;6.07;;;;;;;10.73;87.77;101480.47;6246274;23;20004;-85
2022/06/21 03:06:35;;;;;;;12.20;6.72;;;;;;;10.68;88.57;101468.34;6245965;23;20011;-86
2022/06/21 03:09:11;;;;;;;13.13;6.50;;;;;;;10.67;88.47;101463.97;6219226;23;20004;-85
2022/06/21 03:11:41;;;;;;;12.50;6.50;;;;;;;10.66;88.52;101473.13;6246111;23;20053;-85
2022/06/21 03:14:22;;;;;;;14.75;6.78;;;;;;;10.66;88.46;101469.59;6219052;23;20469;-85
2022/06/21 03:16:51;;;;;;;14.25;6.25;;;;;;;10.63;88.40;101467.25;6219140;23;20027;-85
2022/06/21 03:19:33;;;;;;;19.40;7.15;;;;;;;10.61;88.56;101477.50;6219310;23;20426;-85
2022/06/21 03:21:59;;;;;;;12.45;6.82;;;;;;;10.61;89.49;101483.75;6246148;23;20004;-85
2022/06/21 03:24:29;;;;;;;15.80;7.20;;;;;;;10.56;90.90;101469.13;6245866;23;20000;-86
2022/06/21 03:27:13;;;;;;;12.00;7.15;;;;;;;10.62;91.08;101485.44;6218784;23;20195;-85
2022/06/21 03:29:41;;;;;;;12.55;7.13;;;;;;;10.56;89.47;101467.25;6219434;23;20011;-85
2022/06/21 03:32:19;;;;;;;13.93;6.50;;;;;;;10.60;89.04;101481.22;6218933;23;20434;-85
2022/06/21 03:34:51;;;;;;;14.97;7.00;;;;;;;10.49;89.48;101463.66;6246951;23;20039;-85
2022/06/21 03:37:20;;;;;;;13.70;7.50;;;;;;;10.56;89.39;101459.09;6221157;23;20374;-85
2022/06/21 03:42:38;;;;;;;15.30;6.85;;;;;;;10.52;89.82;101447.78;6247676;23;20111;-85
2022/06/21 03:45:21;;;;;;;14.20;7.43;;;;;;;10.55;90.25;101448.44;6221135;23;20326;-85
2022/06/21 03:48:15;;;;;;;21.70;8.30;;;;;;;10.59;90.50;101441.59;6247934;23;20083;-85
2022/06/21 03:51:10;;;;;;;12.52;7.03;;;;;;;10.61;89.91;101443.03;6220549;23;20016;-85
2022/06/21 03:53:54;;;;;;;14.48;7.55;;;;;;;10.67;90.40;101439.53;6220599;23;20016;-86
2022/06/21 03:56:22;;;;;;;12.60;7.90;;;;;;;10.82;90.87;101455.69;6220712;23;20012;-85
2022/06/21 03:59:09;;;;;;;12.00;7.25;;;;;;;10.80;89.66;101438.75;6221141;23;20058;-86
2022/06/21 04:01:45;;;;;;;17.10;8.00;;;;;;;10.88;89.55;101464.91;6248140;23;20043;-86
2022/06/21 04:04:27;;;;;;;18.02;8.32;;;;;;;10.95;90.10;101468.44;6220918;23;20311;-86
2022/06/21 04:07:25;;;;;;;16.95;8.32;;;;;;;11.00;89.43;101467.88;6220678;23;20087;-85
2022/06/21 04:09:59;;;;;;;16.33;7.97;;;;;;;10.94;89.80;101455.09;6220955;23;20008;-85
2022/06/21 04:12:50;;;;;;;16.42;8.07;;;;;;;10.96;90.09;101456.56;6247296;23;20038;-85
2022/06/21 04:15:24;;;;;;;14.70;7.87;;;;;;;11.02;89.39;101457.63;6220417;23;20008;-85
2022/06/21 04:18:15;;;;;;;14.95;7.80;;;;;;;11.10;88.88;101459.31;6247228;23;20038;-85
2022/06/21 04:21:05;;;;;;;13.45;7.57;;;;;;;11.16;88.35;101458.50;6220735;23;20004;-85
2022/06/21 04:23:42;;;;;;;17.20;8.48;;;;;;;11.20;88.80;101455.16;6220544;23;20036;-85
2022/06/21 04:26:16;;;;;;;18.75;8.15;;;;;;;11.18;88.72;101449.13;6247297;23;20008;-85
2022/06/21 04:29:02;;;;;;;12.50;7.90;;;;;;;11.26;88.84;101445.38;6221040;23;20012;-85
2022/06/21 04:31:40;;;;;;;16.02;8.23;;;;;;;11.30;88.31;101437.66;6221190;23;20091;-85
2022/06/21 04:34:24;;;;;;;12.40;7.78;;;;;;;11.30;88.22;101438.47;6220591;23;20008;-85
2022/06/21 04:37:07;;;;;;;16.23;8.43;;;;;;;11.34;87.78;101437.03;6220519;23;20012;-85
2022/06/21 04:39:52;;;;;;;18.27;8.32;;;;;;;11.47;87.33;101443.53;6247465;23;20008;-85
2022/06/21 04:42:43;;;;;;;15.40;7.57;;;;;;;11.43;87.35;101429.53;6220087;23;20012;-85
2022/06/21 04:45:28;;;;;;;16.50;7.97;;;;;;;11.48;86.73;101423.47;6220560;23;20008;-85
2022/06/21 04:48:24;;;;;;;17.77;7.85;;;;;;;11.56;87.28;101423.28;6220437;23;20011;-85
2022/06/21 04:51:11;;;;;;;17.45;8.35;;;;;;;11.67;87.48;101427.25;6220838;23;20518;-85
2022/06/21 04:53:58;;;;;;;15.00;7.30;;;;;;;11.76;86.56;101436.88;6220427;23;20030;-85
2022/06/21 04:56:50;;;;;;;15.07;7.53;;;;;;;11.84;86.19;101436.66;6219899;23;20008;-85
2022/06/21 04:59:24;;;;;;;15.80;7.28;;;;;;;11.84;86.16;101423.06;6220498;23;20062;-85
2022/06/21 05:02:10;;;;;;;14.63;7.53;;;;;;;11.84;85.65;101414.06;6220417;23;20422;-85
2022/06/21 05:04:41;;;;;;;15.45;7.07;;;;;;;11.91;85.49;101428.50;6177812;23;20422;-84
2022/06/21 05:07:30;;;;;;;;;;;;;;;;;;;;;
2022/06/21 05:10:49;;;;;;;19.07;6.80;;;;;;;12.02;84.51;101427.91;6221083;23;20091;-87
2022/06/21 05:13:36;;;;;;;16.27;7.25;;;;;;;12.11;84.70;101423.06;6245688;23;20039;-88
2022/06/21 05:16:39;;;;;;;11.45;6.32;;;;;;;12.18;84.24;101433.94;6220745;23;20087;-89
2022/06/21 05:20:12;;;;;;;15.63;6.30;;;;;;;12.24;83.38;101417.59;6209788;23;20004;-91
2022/06/21 05:23:42;;;;;;;;;;;;;;;;;;;;;
2022/06/21 05:30:03;;;;;;;13.18;5.20;;;;;;;12.48;82.46;101414.41;6065304;23;20010;-85
2022/06/21 05:43:01;;;;;;;12.23;4.73;;;;;;;12.88;80.37;101436.88;5980171;23;20387;-89
2022/06/21 05:46:03;;;;;;;;;;;;;;;;;;;;;
2022/06/21 05:48:40;;;;;;;14.23;4.35;;;;;;;13.07;77.94;101421.47;6053034;23;20093;-87
2022/06/21 05:51:20;;;;;;;8.00;3.95;;;;;;;13.14;77.39;101433.19;6040970;23;20014;-86
2022/06/21 05:54:16;;;;;;;7.60;3.70;;;;;;;13.19;77.58;101445.31;6080748;23;20445;-87
2022/06/21 05:56:56;;;;;;;9.00;3.60;;;;;;;13.31;77.16;101460.72;6196852;23;20427;-87
2022/06/21 05:59:27;;;;;;;10.23;4.15;;;;;;;13.34;77.41;101443.16;6219619;23;20418;-86
2022/06/21 06:02:32;;;;;;;11.55;4.03;;;;;;;13.49;77.01;101451.88;6219016;23;20004;-87
2022/06/21 06:05:50;;;;;;;8.38;3.58;;;;;;;13.59;76.56;101461.44;6187135;23;20055;-88
2022/06/21 06:08:44;;;;;;;10.27;3.40;;;;;;;13.61;75.82;101451.16;6244951;23;20060;-87
2022/06/21 06:14:23;;;;;;;6.32;3.50;;;;;;;13.82;75.70;101453.50;6246026;23;20054;-87
2022/06/21 06:17:26;;;;;;;9.18;3.47;;;;;;;13.90;75.01;101466.03;6218905;23;20000;-88
2022/06/21 06:23:49;;;;;;;7.45;3.22;;;;;;;14.19;73.93;101471.88;6203178;23;20004;-87
2022/06/21 06:26:28;;;;;;;7.17;3.33;;;;;;;14.20;73.02;101473.53;6218042;23;20000;-85
2022/06/21 06:29:17;;;;;;;7.32;3.28;;;;;;;14.31;72.48;101483.72;6244797;23;20028;-85
2022/06/21 06:31:59;;;;;;;10.13;3.00;;;;;;;14.44;72.80;101484.63;6219668;23;20055;-84
2022/06/21 06:34:29;;;;;;;4.88;2.78;;;;;;;14.51;72.13;101472.59;6218811;23;20491;-85
2022/06/21 06:37:25;;;;;;;5.90;2.55;;;;;;;14.61;71.63;101474.81;6219349;23;20004;-85
2022/06/21 06:39:59;;;;;;;5.17;2.37;;;;;;;14.65;70.56;101465.13;6219309;23;20031;-85
2022/06/21 06:42:44;;;;;;;7.88;2.65;;;;;;;14.82;70.29;101478.16;6218200;23;20008;-85
2022/06/21 06:45:20;;;;;;;11.40;2.67;;;;;;;14.87;69.66;101470.13;6219285;23;20430;-85
2022/06/21 06:48:03;;;;;;;11.32;2.97;;;;;;;14.99;69.23;101475.66;6219339;23;20004;-85
2022/06/21 06:50:55;;;;;;;8.60;3.03;;;;;;;15.16;68.88;101498.56;6219004;23;20001;-85
2022/06/21 06:53:47;;;;;;;14.63;3.30;;;;;;;15.19;68.34;101478.13;6219214;23;20000;-85
2022/06/21 06:56:39;;;;;;;5.05;2.78;;;;;;;15.26;67.93;101476.13;6219003;23;20039;-85
2022/06/21 06:59:14;;;;;;;10.90;2.60;;;;;;;15.36;67.57;101475.56;6216090;23;20043;-85
2022/06/21 07:02:02;;;;;;;;;;;;;;;;;;;;;
2022/06/21 07:04:44;;;;;;;8.82;2.60;;;;;;;15.63;66.16;101481.47;6246401;23;20076;-85
2022/06/21 07:07:18;;;;;;;7.20;2.63;;;;;;;15.78;65.97;101475.59;6219403;23;20012;-84
2022/06/21 07:09:58;;;;;;;9.98;2.90;;;;;;;15.97;66.07;101479.06;6220181;23;20004;-85
2022/06/21 07:12:43;;;;;;;6.57;2.45;;;;;;;16.07;64.60;101483.97;6221134;23;20007;-85
2022/06/21 07:15:36;;;;;;;8.73;2.50;;;;;;;16.17;64.08;101484.22;6199159;23;20012;-86
2022/06/21 07:18:26;;;;;;;11.50;3.35;;;;;;;16.29;63.60;101476.00;6221150;23;20008;-86
2022/06/21 07:20:58;;;;;;;8.20;2.90;;;;;;;16.46;63.42;101471.47;6215237;23;20015;-86
2022/06/21 07:23:31;;;;;;;5.72;2.92;;;;;;;16.57;62.70;101471.72;6247684;23;20008;-86
2022/06/21 07:26:24;;;;;;;;;;;;;;;;;;;;;
2022/06/21 07:29:09;;;;;;;7.65;2.85;;;;;;;16.77;62.07;101466.66;6247582;23;20513;-86
2022/06/21 07:31:45;;;;;;;9.88;3.47;;;;;;;16.84;61.13;101464.63;6221321;23;20422;-86
2022/06/21 07:34:24;;;;;;;7.93;3.50;;;;;;;16.95;61.28;101459.38;6220825;23;20008;-86
2022/06/21 07:37:18;;;;;;;7.90;3.20;;;;;;;17.15;60.95;101478.94;6198105;23;20018;-86
2022/06/21 07:40:04;;;;;;;10.88;3.40;;;;;;;17.20;60.77;101478.25;6247727;23;20035;-86
2022/06/21 07:42:57;;;;;;;11.13;3.47;;;;;;;17.21;60.14;101479.91;6217442;23;20083;-86
2022/06/21 07:45:34;;;;;;;10.63;3.38;;;;;;;17.21;59.37;101463.44;6221494;23;20016;-86
2022/06/21 07:48:27;;;;;;;7.10;3.13;;;;;;;17.35;59.25;101469.47;6220850;23;20012;-86
2022/06/21 07:51:35;;;;;;;;;;;;;;;;;;;;;
2022/06/21 07:54:32;;;;;;;8.80;3.00;;;;;;;17.74;58.35;101466.03;6247781;23;20091;-86
2022/06/21 07:57:13;;;;;;;5.82;2.72;;;;;;;17.87;57.59;101458.28;6220253;23;20015;-86
2022/06/21 08:00:21;;;;;;;8.13;2.78;;;;;;;18.21;57.34;101457.47;6220997;23;20334;-85
2022/06/21 08:09:07;;;;;;;9.23;3.33;;;;;;;18.68;55.49;101445.22;6246470;23;20015;-87
2022/06/21 08:12:00;;;;;;;7.93;3.10;;;;;;;18.72;54.81;101441.69;6218806;23;20011;-86
2022/06/21 08:14:41;;;;;;;;;;;;;;;;;;;;;
2022/06/21 08:17:33;;;;;;;8.40;3.60;;;;;;;19.04;54.59;101445.66;6247117;23;20395;-87
2022/06/21 08:20:16;;;;;;;7.30;3.13;;;;;;;19.19;53.47;101450.50;6218801;23;20088;-87
2022/06/21 08:24:02;;;;;;;;;;;;;;;;;;;;;
2022/06/21 08:26:59;;;;;;;;;;;;;;;;;;;;;
2022/06/21 08:32:34;;;;;;;6.33;2.73;;;;;;;20.30;49.61;101412.34;6109420;23;20014;-86
2022/06/21 08:35:29;;;;;;;4.88;2.67;;;;;;;20.47;50.32;101406.63;6219797;23;20011;-86
2022/06/21 08:38:33;;;;;;;7.90;2.65;;;;;;;20.71;48.63;101414.50;6196402;23;20015;-86
2022/06/21 08:44:30;;;;;;;14.02;2.97;;;;;;;20.90;46.37;101399.09;6246832;23;20070;-86
2022/06/21 08:47:29;;;;;;;7.77;2.77;;;;;;;21.07;48.55;101396.13;6220371;23;20054;-87
2022/06/21 08:50:19;;;;;;;6.47;3.20;;;;;;;21.17;46.78;101384.25;6219846;23;20094;-86
2022/06/21 08:53:11;;;;;;;11.25;2.80;;;;;;;21.36;47.02;101377.13;6220872;23;20019;-86
2022/06/21 08:56:14;;;;;;;;;;;;;;;;;;;;;
2022/06/21 08:59:34;;;;;;;7.03;2.80;;;;;;;21.58;46.62;101386.25;6246904;23;20091;-86
2022/06/21 09:02:43;;;;;;;11.57;3.13;;;;;;;21.47;46.75;101366.91;6154513;23;20052;-86
2022/06/21 09:05:51;;;;;;;7.78;3.40;;;;;;;21.61;46.68;101369.94;6220116;23;20015;-86
2022/06/21 09:08:44;;;;;;;;;;;;;;;;;;;;;
2022/06/21 09:11:17;;;;;;;7.07;3.60;;;;;;;21.85;44.74;101366.59;6246860;23;20094;-87
2022/06/21 09:14:29;;;;;;;8.88;3.67;;;;;;;22.10;44.97;101351.94;6246742;23;20453;-86
2022/06/21 09:17:53;;;;;;;12.27;3.37;;;;;;;22.24;44.73;101354.91;6220360;23;20373;-86
2022/06/21 09:20:50;;;;;;;8.23;3.08;;;;;;;22.29;44.17;101348.53;6200109;23;20019;-87
2022/06/21 09:23:33;;;;;;;;;;;;;;;;;;;;;
2022/06/21 09:26:43;;;;;;;7.35;3.10;;;;;;;22.26;43.05;101338.88;6249227;23;20391;-86
2022/06/21 09:29:55;;;;;;;5.65;2.60;;;;;;;22.35;43.88;101341.91;6220784;23;20012;-87
2022/06/21 09:32:55;;;;;;;;;;;;;;;;;;;;;
2022/06/21 09:35:49;;;;;;;7.65;3.15;;;;;;;22.65;43.02;101316.03;6250417;23;20071;-87
2022/06/21 09:38:54;;;;;;;6.05;2.95;;;;;;;22.77;43.06;101330.34;6219368;23;20484;-86
2022/06/21 09:41:54;;;;;;;5.13;3.17;;;;;;;23.04;42.69;101348.41;6198774;23;20024;-87
2022/06/21 09:44:46;;;;;;;11.80;3.30;;;;;;;23.23;42.04;101343.06;6220103;23;20012;-90
2022/06/21 09:47:42;;;;;;;5.80;2.97;;;;;;;23.52;41.28;101342.28;6220207;23;20016;-88
2022/06/21 09:50:36;;;;;;;9.23;3.00;;;;;;;23.94;40.49;101349.06;6220168;23;20012;-88
2022/06/21 09:56:37;;;;;;;5.22;2.97;;;;;;;24.26;37.75;101330.97;6234388;23;20012;-86
2022/06/21 09:59:49;;;;;;;;;;;;;;;;;;;;;
2022/06/21 10:02:50;;;;;;;8.43;3.60;;;;;;;24.86;37.61;101330.47;6246486;23;20523;-87
2022/06/21 10:06:31;;;;;;;7.72;3.10;;;;;;;25.10;37.66;101339.78;6220003;23;20008;-85
2022/06/21 10:09:04;;;;;;;7.55;3.33;;;;;;;25.04;36.22;101342.66;6006245;23;20017;-86
2022/06/21 10:12:07;;;;;;;7.47;3.25;;;;;;;25.30;36.80;101339.50;6070569;23;20043;-87
2022/06/21 10:15:09;;;;;;;8.82;3.45;;;;;;;25.48;36.04;101329.47;6070598;23;20010;-87
2022/06/21 10:18:06;;;;;;;6.23;3.00;;;;;;;25.44;35.30;101335.94;6139544;23;20008;-79
2022/06/21 10:20:56;;;;;;;5.28;3.08;;;;;;;25.56;34.16;101339.06;6246259;23;20000;-83
2022/06/21 10:23:43;;;;;;;7.07;2.70;;;;;;;25.68;35.67;101350.50;6219424;23;20035;-83
2022/06/21 10:26:14;;;;;;;6.07;2.92;;;;;;;25.73;34.78;101346.81;6219203;23;20012;-83
2022/06/21 10:28:49;;;;;;;7.55;3.55;;;;;;;25.86;35.70;101331.28;6246228;23;20011;-83
2022/06/21 10:31:36;;;;;;;12.70;3.97;;;;;;;25.84;34.80;101334.38;6246418;23;20032;-83
2022/06/21 10:34:40;;;;;;;6.85;3.10;;;;;;;26.11;36.14;101329.97;6218245;23;20011;-83
2022/06/21 10:37:30;;;;;;;7.80;3.20;;;;;;;26.11;35.32;101335.53;6099077;23;20009;-85
2022/06/21 10:40:07;;;;;;;7.53;3.88;;;;;;;26.25;34.28;101346.69;6099270;23;20476;-84
2022/06/21 10:43:35;;;;;;;7.07;3.70;;;;;;;26.39;35.15;101335.53;6184317;23;20082;-84
2022/06/21 10:46:13;;;;;;;11.67;4.23;;;;;;;26.15;33.69;101331.03;6191190;23;20091;-84
2022/06/21 10:49:00;;;;;;;9.82;3.88;;;;;;;26.21;34.44;101337.31;6191260;23;20011;-84
2022/06/21 10:52:03;;;;;;;5.70;3.95;;;;;;;26.70;34.45;101335.69;6191031;23;20012;-85
2022/06/21 10:54:40;;;;;;;7.47;3.50;;;;;;;26.85;33.68;101340.09;6190539;23;20087;-84
2022/06/21 10:57:30;;;;;;;6.72;3.80;;;;;;;27.04;33.55;101334.34;6190517;23;20019;-85
2022/06/21 11:03:10;;;;;;;9.05;4.03;;;;;;;27.33;32.64;101346.16;6217432;23;20019;-84
2022/06/21 11:05:57;;;;;;;7.65;3.50;;;;;;;27.11;33.40;101359.78;6190971;23;20059;-84
2022/06/21 11:08:37;;;;;;;8.15;4.10;;;;;;;26.79;32.69;101349.69;6190875;23;20011;-84
2022/06/21 11:11:21;;;;;;;8.40;3.60;;;;;;;26.78;33.54;101353.59;6217105;23;20431;-84
2022/06/21 11:13:56;;;;;;;7.27;3.40;;;;;;;26.68;32.73;101348.28;6217485;23;20450;-84
2022/06/21 11:16:43;;;;;;;6.50;3.70;;;;;;;26.81;32.93;101335.47;6217629;23;20004;-84
2022/06/21 11:19:32;;;;;;;5.43;3.50;;;;;;;26.98;33.38;101332.00;6217544;23;20016;-84
2022/06/21 11:22:11;;;;;;;6.50;3.92;;;;;;;27.10;32.65;101335.84;6190651;23;20087;-84
2022/06/21 11:25:12;;;;;;;8.68;4.28;;;;;;;27.12;32.33;101333.59;6190937;23;20374;-84
2022/06/21 11:28:03;;;;;;;7.43;4.47;;;;;;;27.17;31.84;101324.28;6129285;23;20486;-84
2022/06/21 11:31:01;;;;;;;10.38;4.65;;;;;;;27.53;32.74;101333.72;6157601;23;20019;-84
2022/06/21 11:33:43;;;;;;;6.03;3.90;;;;;;;27.63;32.27;101337.06;6190608;23;20012;-84
2022/06/21 11:36:24;;;;;;;7.57;4.07;;;;;;;27.80;31.96;101332.69;6217120;23;20027;-84
2022/06/21 11:39:31;;;;;;;10.50;4.25;;;;;;;28.62;31.92;101316.41;6190656;23;20012;-84
2022/06/21 11:42:23;;;;;;;8.30;3.70;;;;;;;29.21;30.22;101315.91;6095739;23;20488;-84
2022/06/21 11:45:09;;;;;;;7.35;4.03;;;;;;;29.05;29.80;101314.75;6243003;23;20082;-84
2022/06/21 11:47:40;;;;;;;9.27;4.00;;;;;;;29.09;29.00;101326.13;6247249;23;20012;-84
2022/06/21 11:50:20;;;;;;;8.48;4.15;;;;;;;29.31;29.32;101311.97;6247487;23;20056;-85
2022/06/21 11:53:16;;;;;;;6.15;3.63;;;;;;;29.45;28.69;101316.53;6220389;23;20015;-85
2022/06/21 11:55:46;;;;;;;9.67;4.00;;;;;;;29.87;27.68;101313.97;6246364;23;20000;-83
2022/06/21 11:58:19;;;;;;;8.80;4.40;;;;;;;30.47;27.99;101306.38;6220449;23;20011;-84
2022/06/21 12:00:56;;;;;;;6.85;3.90;;;;;;;30.71;26.95;101314.09;6220606;23;20043;-83
2022/06/21 12:03:40;;;;;;;5.45;3.70;;;;;;;30.95;27.05;101310.59;6247195;23;20026;-84
2022/06/21 12:06:17;;;;;;;6.75;3.95;;;;;;;32.58;24.89;101302.03;6220375;23;20011;-84
2022/06/21 12:08:59;;;;;;;7.23;3.93;;;;;;;34.65;22.73;101302.16;6220208;23;20034;-84
2022/06/21 12:11:39;;;;;;;6.55;3.95;;;;;;;37.32;20.63;101301.59;6220419;23;20008;-84
2022/06/21 12:14:38;;;;;;;9.30;4.55;;;;;;;36.68;20.98;101298.84;6220232;23;20012;-85
2022/06/21 12:17:12;;;;;;;7.80;4.05;;;;;;;35.14;21.53;101276.22;6247239;23;20004;-85
2022/06/21 12:19:42;;;;;;;5.28;3.70;;;;;;;33.72;21.44;101284.75;6247068;23;20009;-84
2022/06/21 12:22:35;;;;;;;8.50;4.10;;;;;;;32.74;23.27;101282.47;6219965;23;20008;-85
2022/06/21 12:25:04;;;;;;;5.75;3.28;;;;;;;31.47;23.44;101274.81;6220297;23;20015;-84
2022/06/21 12:27:32;;;;;;;4.93;3.85;;;;;;;30.84;24.55;101275.78;6219752;23;20004;-85
2022/06/21 12:30:22;;;;;;;6.60;3.95;;;;;;;30.59;26.04;101267.25;6195283;23;20016;-84
2022/06/21 12:32:53;;;;;;;7.15;3.88;;;;;;;29.94;26.38;101261.09;6246763;23;20000;-85
2022/06/21 12:35:46;;;;;;;4.27;3.80;;;;;;;29.80;26.63;101257.69;6220163;23;20005;-84
2022/06/21 12:38:18;;;;;;;7.55;3.78;;;;;;;29.08;26.04;101261.03;6220094;23;20099;-84
2022/06/21 12:40:48;;;;;;;12.65;3.92;;;;;;;29.26;26.78;101261.84;6219983;23;20058;-84
2022/06/21 12:43:32;;;;;;;5.05;2.90;;;;;;;29.30;24.82;101267.59;6219870;23;20008;-85
2022/06/21 12:46:04;;;;;;;5.80;2.70;;;;;;;29.40;25.73;101264.44;6219520;23;20008;-85
2022/06/21 12:48:51;;;;;;;4.17;3.20;;;;;;;29.70;25.82;101270.88;6219980;23;20039;-84
2022/06/21 12:51:51;;;;;;;9.57;3.30;;;;;;;29.69;26.05;101265.63;6246739;23;20004;-84
2022/06/21 12:54:44;;;;;;;4.30;3.10;;;;;;;29.60;26.20;101264.84;6220008;23;20008;-84
2022/06/21 12:57:44;;;;;;;6.05;3.55;;;;;;;29.19;26.77;101265.13;6219343;23;20008;-85
2022/06/21 13:00:24;;;;;;;6.28;3.33;;;;;;;28.60;27.38;101262.91;6219793;23;20090;-84
2022/06/21 13:03:18;;;;;;;6.57;3.57;;;;;;;28.25;28.37;101253.66;6247232;23;20004;-84
2022/06/21 13:06:22;;;;;;;6.40;3.70;;;;;;;27.78;29.09;101252.19;6219755;23;20089;-84
2022/06/21 13:08:59;;;;;;;9.05;3.10;;;;;;;27.60;29.40;101256.06;6198423;23;20419;-84
2022/06/21 13:11:42;;;;;;;5.07;2.17;;;;;;;27.10;29.44;101252.31;6220117;23;20150;-84
2022/06/21 13:14:30;;;;;;;6.82;2.45;;;;;;;27.13;29.26;101253.66;6220156;23;20476;-84
2022/06/21 13:16:58;;;;;;;4.37;2.60;;;;;;;26.62;29.47;101247.38;6220056;23;20095;-84
2022/06/21 13:19:48;;;;;;;5.18;2.40;;;;;;;26.63;30.11;101249.00;6219830;23;20012;-84
2022/06/21 13:25:44;;;;;;;4.97;2.53;;;;;;;26.56;29.54;101224.41;6222601;23;20392;-84
2022/06/21 13:28:25;;;;;;;6.90;2.42;;;;;;;26.65;29.40;101238.41;6246715;23;20004;-84
2022/06/21 13:31:30;;;;;;;3.73;2.10;;;;;;;26.74;29.18;101235.72;6220083;23;20015;-85
2022/06/21 13:34:05;;;;;;;5.25;2.10;;;;;;;26.71;28.77;101230.78;6244596;23;20053;-84
2022/06/21 13:36:37;;;;;;;5.90;2.15;;;;;;;26.80;29.40;101237.22;6219914;23;20008;-84
2022/06/21 13:39:11;;;;;;;4.43;2.40;;;;;;;27.05;29.39;101240.50;6219676;23;20004;-84
2022/06/21 13:44:43;;;;;;;4.10;2.30;;;;;;;27.63;28.73;101224.75;6246601;23;20054;-84
2022/06/21 13:47:43;;;;;;;3.88;1.90;;;;;;;27.76;28.83;101229.38;6220201;23;20012;-84